sensor_id;sensor_type;location;lat;lon;timestamp;temperature;humidity
38237;DHT22;50101;49.438;11.098;2022-10-31T00:00:47;19.40;77.30
38237;DHT22;50101;49.438;11.098;2022-10-31T00:03:15;19.40;76.60
38237;DHT22;50101;49.438;11.098;2022-10-31T00:05:48;19.40;77.20
38237;DHT22;50101;49.438;11.098;2022-10-31T00:08:16;19.40;77.10
38237;DHT22;50101;49.438;11.098;2022-10-31T00:10:44;19.40;77.10
38237;DHT22;50101;49.438;11.098;2022-10-31T00:13:13;19.40;77.10
38237;DHT22;50101;49.438;11.098;2022-10-31T00:15:40;19.40;77.10
38237;DHT22;50101;49.438;11.098;2022-10-31T00:18:08;19.40;77.10
38237;DHT22;50101;49.438;11.098;2022-10-31T00:20:36;19.40;76.50
38237;DHT22;50101;49.438;11.098;2022-10-31T00:23:04;19.40;77.10
38237;DHT22;50101;49.438;11.098;2022-10-31T00:25:34;19.40;77.10
38237;DHT22;50101;49.438;11.098;2022-10-31T00:28:03;19.40;77.10
38237;DHT22;50101;49.438;11.098;2022-10-31T00:30:30;19.40;77.10
38237;DHT22;50101;49.438;11.098;2022-10-31T00:32:56;19.40;77.10
38237;DHT22;50101;49.438;11.098;2022-10-31T00:35:24;19.40;77.10
38237;DHT22;50101;49.438;11.098;2022-10-31T00:37:52;19.40;77.10
38237;DHT22;50101;49.438;11.098;2022-10-31T00:40:18;19.40;77.10
38237;DHT22;50101;49.438;11.098;2022-10-31T00:42:45;19.40;77.00
38237;DHT22;50101;49.438;11.098;2022-10-31T00:45:12;19.40;77.00
38237;DHT22;50101;49.438;11.098;2022-10-31T00:47:38;19.40;77.00
38237;DHT22;50101;49.438;11.098;2022-10-31T00:50:06;19.40;76.90
38237;DHT22;50101;49.438;11.098;2022-10-31T00:52:33;19.40;76.90
38237;DHT22;50101;49.438;11.098;2022-10-31T00:55:00;19.40;76.90
38237;DHT22;50101;49.438;11.098;2022-10-31T00:57:26;19.40;76.90
38237;DHT22;50101;49.438;11.098;2022-10-31T00:59:53;19.40;76.80
38237;DHT22;50101;49.438;11.098;2022-10-31T01:02:20;19.40;76.80
38237;DHT22;50101;49.438;11.098;2022-10-31T01:04:46;19.40;77.50
38237;DHT22;50101;49.438;11.098;2022-10-31T01:07:13;19.40;76.80
38237;DHT22;50101;49.438;11.098;2022-10-31T01:09:40;19.40;76.80
38237;DHT22;50101;49.438;11.098;2022-10-31T01:12:07;19.40;76.80
38237;DHT22;50101;49.438;11.098;2022-10-31T01:14:34;19.40;76.70
38237;DHT22;50101;49.438;11.098;2022-10-31T01:17:01;19.40;76.70
38237;DHT22;50101;49.438;11.098;2022-10-31T01:19:27;19.40;76.70
38237;DHT22;50101;49.438;11.098;2022-10-31T01:21:55;19.40;76.70
38237;DHT22;50101;49.438;11.098;2022-10-31T01:24:22;19.40;76.60
38237;DHT22;50101;49.438;11.098;2022-10-31T01:26:48;19.30;76.50
38237;DHT22;50101;49.438;11.098;2022-10-31T01:29:15;19.40;76.60
38237;DHT22;50101;49.438;11.098;2022-10-31T01:31:41;19.30;76.50
38237;DHT22;50101;49.438;11.098;2022-10-31T01:34:13;19.40;76.50
38237;DHT22;50101;49.438;11.098;2022-10-31T01:36:40;19.40;76.60
38237;DHT22;50101;49.438;11.098;2022-10-31T01:39:10;19.40;76.50
38237;DHT22;50101;49.438;11.098;2022-10-31T01:41:41;18.50;75.00
38237;DHT22;50101;49.438;11.098;2022-10-31T01:49:34;19.30;76.40
38237;DHT22;50101;49.438;11.098;2022-10-31T01:52:24;19.40;76.50
38237;DHT22;50101;49.438;11.098;2022-10-31T01:54:59;19.30;76.30
38237;DHT22;50101;49.438;11.098;2022-10-31T01:57:27;19.30;76.40
38237;DHT22;50101;49.438;11.098;2022-10-31T01:59:57;19.40;76.40
38237;DHT22;50101;49.438;11.098;2022-10-31T02:02:27;19.40;76.40
38237;DHT22;50101;49.438;11.098;2022-10-31T02:04:56;19.40;76.30
38237;DHT22;50101;49.438;11.098;2022-10-31T02:07:27;19.40;76.30
38237;DHT22;50101;49.438;11.098;2022-10-31T02:09:56;19.40;76.30
38237;DHT22;50101;49.438;11.098;2022-10-31T02:12:24;19.30;76.20
38237;DHT22;50101;49.438;11.098;2022-10-31T02:14:51;19.30;76.20
38237;DHT22;50101;49.438;11.098;2022-10-31T02:17:18;19.40;76.30
38237;DHT22;50101;49.438;11.098;2022-10-31T02:20:00;19.30;76.20
38237;DHT22;50101;49.438;11.098;2022-10-31T02:31:25;19.40;76.20
38237;DHT22;50101;49.438;11.098;2022-10-31T02:33:58;19.40;76.20
38237;DHT22;50101;49.438;11.098;2022-10-31T02:36:37;19.40;76.20
38237;DHT22;50101;49.438;11.098;2022-10-31T02:39:21;19.30;76.10
38237;DHT22;50101;49.438;11.098;2022-10-31T02:42:01;19.30;76.00
38237;DHT22;50101;49.438;11.098;2022-10-31T02:44:39;19.30;76.00
38237;DHT22;50101;49.438;11.098;2022-10-31T02:47:14;19.40;76.10
38237;DHT22;50101;49.438;11.098;2022-10-31T02:52:31;19.30;76.00
38237;DHT22;50101;49.438;11.098;2022-10-31T02:54:58;19.30;76.00
38237;DHT22;50101;49.438;11.098;2022-10-31T02:57:31;19.30;76.00
38237;DHT22;50101;49.438;11.098;2022-10-31T03:00:05;19.30;75.90
38237;DHT22;50101;49.438;11.098;2022-10-31T03:05:38;19.40;76.00
38237;DHT22;50101;49.438;11.098;2022-10-31T03:08:35;19.30;75.90
38237;DHT22;50101;49.438;11.098;2022-10-31T03:11:06;19.30;75.90
38237;DHT22;50101;49.438;11.098;2022-10-31T03:13:45;19.30;75.90
38237;DHT22;50101;49.438;11.098;2022-10-31T03:16:35;19.30;75.90
38237;DHT22;50101;49.438;11.098;2022-10-31T03:19:08;19.30;75.90
38237;DHT22;50101;49.438;11.098;2022-10-31T03:21:46;19.30;75.80
38237;DHT22;50101;49.438;11.098;2022-10-31T03:24:15;19.30;75.80
38237;DHT22;50101;49.438;11.098;2022-10-31T03:26:46;19.30;75.80
38237;DHT22;50101;49.438;11.098;2022-10-31T03:29:15;19.30;75.80
38237;DHT22;50101;49.438;11.098;2022-10-31T03:31:47;19.30;75.80
38237;DHT22;50101;49.438;11.098;2022-10-31T03:34:17;19.30;75.80
38237;DHT22;50101;49.438;11.098;2022-10-31T03:36:48;19.30;75.80
38237;DHT22;50101;49.438;11.098;2022-10-31T03:39:18;19.30;75.80
38237;DHT22;50101;49.438;11.098;2022-10-31T03:41:50;19.30;75.80
38237;DHT22;50101;49.438;11.098;2022-10-31T03:44:21;19.30;75.80
38237;DHT22;50101;49.438;11.098;2022-10-31T03:46:49;19.30;75.80
38237;DHT22;50101;49.438;11.098;2022-10-31T03:49:16;19.30;75.80
38237;DHT22;50101;49.438;11.098;2022-10-31T03:52:09;19.30;75.20
38237;DHT22;50101;49.438;11.098;2022-10-31T03:54:46;19.30;75.80
38237;DHT22;50101;49.438;11.098;2022-10-31T03:57:42;19.30;76.00
38237;DHT22;50101;49.438;11.098;2022-10-31T04:00:12;19.30;75.80
38237;DHT22;50101;49.438;11.098;2022-10-31T04:02:42;20.10;76.60
38237;DHT22;50101;49.438;11.098;2022-10-31T04:05:13;19.30;75.80
38237;DHT22;50101;49.438;11.098;2022-10-31T04:07:45;19.30;75.70
38237;DHT22;50101;49.438;11.098;2022-10-31T04:10:14;19.30;75.70
38237;DHT22;50101;49.438;11.098;2022-10-31T04:12:45;19.30;75.60
38237;DHT22;50101;49.438;11.098;2022-10-31T04:15:15;19.30;75.60
38237;DHT22;50101;49.438;11.098;2022-10-31T04:17:45;19.20;75.50
38237;DHT22;50101;49.438;11.098;2022-10-31T04:20:17;19.30;75.60
38237;DHT22;50101;49.438;11.098;2022-10-31T04:22:47;19.20;75.40
38237;DHT22;50101;49.438;11.098;2022-10-31T04:25:13;19.20;75.30
38237;DHT22;50101;49.438;11.098;2022-10-31T04:27:40;19.30;75.40
38237;DHT22;50101;49.438;11.098;2022-10-31T04:30:07;19.30;75.40
38237;DHT22;50101;49.438;11.098;2022-10-31T04:32:34;19.20;75.30
38237;DHT22;50101;49.438;11.098;2022-10-31T04:35:00;19.30;75.40
38237;DHT22;50101;49.438;11.098;2022-10-31T04:37:27;19.30;75.50
38237;DHT22;50101;49.438;11.098;2022-10-31T04:39:53;19.20;75.30
38237;DHT22;50101;49.438;11.098;2022-10-31T04:42:20;19.30;75.40
38237;DHT22;50101;49.438;11.098;2022-10-31T04:44:46;19.20;75.30
38237;DHT22;50101;49.438;11.098;2022-10-31T04:47:13;19.30;75.40
38237;DHT22;50101;49.438;11.098;2022-10-31T04:49:40;19.20;75.30
38237;DHT22;50101;49.438;11.098;2022-10-31T04:52:06;19.30;75.40
38237;DHT22;50101;49.438;11.098;2022-10-31T04:54:34;19.20;75.30
38237;DHT22;50101;49.438;11.098;2022-10-31T04:57:01;19.20;75.30
38237;DHT22;50101;49.438;11.098;2022-10-31T04:59:27;19.20;75.30
38237;DHT22;50101;49.438;11.098;2022-10-31T05:01:54;19.20;75.30
38237;DHT22;50101;49.438;11.098;2022-10-31T05:04:21;19.20;75.30
38237;DHT22;50101;49.438;11.098;2022-10-31T05:06:47;19.20;75.30
38237;DHT22;50101;49.438;11.098;2022-10-31T05:09:14;19.20;75.30
38237;DHT22;50101;49.438;11.098;2022-10-31T05:11:41;19.20;75.30
38237;DHT22;50101;49.438;11.098;2022-10-31T05:14:07;19.20;75.30
38237;DHT22;50101;49.438;11.098;2022-10-31T05:16:34;19.20;75.30
38237;DHT22;50101;49.438;11.098;2022-10-31T05:19:00;19.20;75.20
38237;DHT22;50101;49.438;11.098;2022-10-31T05:21:27;19.20;74.60
38237;DHT22;50101;49.438;11.098;2022-10-31T05:23:54;19.20;75.20
38237;DHT22;50101;49.438;11.098;2022-10-31T05:26:20;19.20;75.20
38237;DHT22;50101;49.438;11.098;2022-10-31T05:28:47;19.20;75.20
38237;DHT22;50101;49.438;11.098;2022-10-31T05:31:13;19.20;75.30
38237;DHT22;50101;49.438;11.098;2022-10-31T05:33:40;19.20;75.20
38237;DHT22;50101;49.438;11.098;2022-10-31T05:36:07;19.20;75.20
38237;DHT22;50101;49.438;11.098;2022-10-31T05:38:34;19.20;75.20
38237;DHT22;50101;49.438;11.098;2022-10-31T05:41:00;20.70;76.70
38237;DHT22;50101;49.438;11.098;2022-10-31T05:43:28;19.20;75.20
38237;DHT22;50101;49.438;11.098;2022-10-31T05:45:55;19.20;75.10
38237;DHT22;50101;49.438;11.098;2022-10-31T05:48:22;19.20;75.20
38237;DHT22;50101;49.438;11.098;2022-10-31T05:50:49;19.20;75.20
38237;DHT22;50101;49.438;11.098;2022-10-31T05:53:16;19.20;74.50
38237;DHT22;50101;49.438;11.098;2022-10-31T05:55:43;19.20;75.10
38237;DHT22;50101;49.438;11.098;2022-10-31T05:58:10;19.20;75.10
38237;DHT22;50101;49.438;11.098;2022-10-31T06:00:37;19.20;75.10
38237;DHT22;50101;49.438;11.098;2022-10-31T06:03:06;19.20;75.10
38237;DHT22;50101;49.438;11.098;2022-10-31T06:05:38;19.20;75.20
38237;DHT22;50101;49.438;11.098;2022-10-31T06:08:04;19.20;75.10
38237;DHT22;50101;49.438;11.098;2022-10-31T06:10:31;19.20;75.10
38237;DHT22;50101;49.438;11.098;2022-10-31T06:12:58;19.20;75.10
38237;DHT22;50101;49.438;11.098;2022-10-31T06:15:24;19.30;75.10
38237;DHT22;50101;49.438;11.098;2022-10-31T06:17:58;19.30;75.20
38237;DHT22;50101;49.438;11.098;2022-10-31T06:20:25;19.30;75.20
38237;DHT22;50101;49.438;11.098;2022-10-31T06:22:52;19.30;75.20
38237;DHT22;50101;49.438;11.098;2022-10-31T06:25:19;19.20;75.10
38237;DHT22;50101;49.438;11.098;2022-10-31T06:27:45;19.20;75.20
38237;DHT22;50101;49.438;11.098;2022-10-31T06:30:12;19.20;75.20
38237;DHT22;50101;49.438;11.098;2022-10-31T06:32:39;19.20;74.50
38237;DHT22;50101;49.438;11.098;2022-10-31T06:35:06;19.20;75.20
38237;DHT22;50101;49.438;11.098;2022-10-31T06:37:33;19.20;75.10
38237;DHT22;50101;49.438;11.098;2022-10-31T06:39:59;19.20;75.10
38237;DHT22;50101;49.438;11.098;2022-10-31T06:42:26;19.20;75.10
38237;DHT22;50101;49.438;11.098;2022-10-31T06:44:52;19.20;75.10
38237;DHT22;50101;49.438;11.098;2022-10-31T06:47:19;19.20;75.00
38237;DHT22;50101;49.438;11.098;2022-10-31T06:49:46;19.20;74.90
38237;DHT22;50101;49.438;11.098;2022-10-31T06:52:12;19.20;74.90
38237;DHT22;50101;49.438;11.098;2022-10-31T06:54:39;19.20;74.90
38237;DHT22;50101;49.438;11.098;2022-10-31T06:57:06;19.20;74.80
38237;DHT22;50101;49.438;11.098;2022-10-31T06:59:32;19.20;75.50
38237;DHT22;50101;49.438;11.098;2022-10-31T07:01:59;19.20;74.20
38237;DHT22;50101;49.438;11.098;2022-10-31T07:04:26;19.20;74.80
38237;DHT22;50101;49.438;11.098;2022-10-31T07:06:52;19.20;74.80
38237;DHT22;50101;49.438;11.098;2022-10-31T07:09:19;19.20;74.60
38237;DHT22;50101;49.438;11.098;2022-10-31T07:11:46;19.20;74.70
38237;DHT22;50101;49.438;11.098;2022-10-31T07:14:12;19.20;74.70
38237;DHT22;50101;49.438;11.098;2022-10-31T07:16:39;19.20;74.50
38237;DHT22;50101;49.438;11.098;2022-10-31T07:19:06;19.20;74.50
38237;DHT22;50101;49.438;11.098;2022-10-31T07:21:32;19.20;74.50
38237;DHT22;50101;49.438;11.098;2022-10-31T07:23:59;19.20;74.50
38237;DHT22;50101;49.438;11.098;2022-10-31T07:26:26;19.20;75.10
38237;DHT22;50101;49.438;11.098;2022-10-31T07:28:54;19.20;74.40
38237;DHT22;50101;49.438;11.098;2022-10-31T07:31:21;19.20;74.30
38237;DHT22;50101;49.438;11.098;2022-10-31T07:33:47;19.20;74.30
38237;DHT22;50101;49.438;11.098;2022-10-31T07:36:14;19.20;74.30
38237;DHT22;50101;49.438;11.098;2022-10-31T07:38:42;19.30;74.50
38237;DHT22;50101;49.438;11.098;2022-10-31T07:41:08;19.30;74.70
38237;DHT22;50101;49.438;11.098;2022-10-31T07:43:36;19.30;73.80
38237;DHT22;50101;49.438;11.098;2022-10-31T07:46:02;19.40;74.60
38237;DHT22;50101;49.438;11.098;2022-10-31T07:48:29;19.30;74.60
38237;DHT22;50101;49.438;11.098;2022-10-31T07:50:56;19.30;74.60
38237;DHT22;50101;49.438;11.098;2022-10-31T07:53:22;19.30;74.70
38237;DHT22;50101;49.438;11.098;2022-10-31T07:55:49;19.30;74.70
38237;DHT22;50101;49.438;11.098;2022-10-31T07:58:17;19.40;74.90
38237;DHT22;50101;49.438;11.098;2022-10-31T08:00:45;19.30;74.20
38237;DHT22;50101;49.438;11.098;2022-10-31T08:03:14;19.40;74.90
38237;DHT22;50101;49.438;11.098;2022-10-31T08:05:41;19.40;74.90
38237;DHT22;50101;49.438;11.098;2022-10-31T08:08:08;19.40;74.90
38237;DHT22;50101;49.438;11.098;2022-10-31T08:10:39;19.40;74.90
38237;DHT22;50101;49.438;11.098;2022-10-31T08:13:12;19.30;74.20
38237;DHT22;50101;49.438;11.098;2022-10-31T08:15:40;19.30;74.80
38237;DHT22;50101;49.438;11.098;2022-10-31T08:18:14;19.40;75.00
38237;DHT22;50101;49.438;11.098;2022-10-31T08:20:42;19.40;74.70
38237;DHT22;50101;49.438;11.098;2022-10-31T08:23:10;19.40;74.70
38237;DHT22;50101;49.438;11.098;2022-10-31T08:25:39;19.40;74.70
38237;DHT22;50101;49.438;11.098;2022-10-31T08:28:06;19.00;74.30
38237;DHT22;50101;49.438;11.098;2022-10-31T08:30:35;19.50;74.90
38237;DHT22;50101;49.438;11.098;2022-10-31T08:33:05;19.40;74.90
38237;DHT22;50101;49.438;11.098;2022-10-31T08:35:32;19.50;74.90
38237;DHT22;50101;49.438;11.098;2022-10-31T08:37:59;19.50;75.00
38237;DHT22;50101;49.438;11.098;2022-10-31T08:40:28;19.50;74.80
38237;DHT22;50101;49.438;11.098;2022-10-31T08:43:00;19.50;75.00
38237;DHT22;50101;49.438;11.098;2022-10-31T08:45:28;19.50;75.10
38237;DHT22;50101;49.438;11.098;2022-10-31T08:47:59;19.60;75.20
38237;DHT22;50101;49.438;11.098;2022-10-31T08:50:27;19.50;74.80
38237;DHT22;50101;49.438;11.098;2022-10-31T08:53:00;19.60;75.30
38237;DHT22;50101;49.438;11.098;2022-10-31T08:55:36;19.60;75.70
38237;DHT22;50101;49.438;11.098;2022-10-31T08:58:04;19.60;75.00
38237;DHT22;50101;49.438;11.098;2022-10-31T09:00:34;19.60;75.20
38237;DHT22;50101;49.438;11.098;2022-10-31T09:03:06;19.50;75.10
38237;DHT22;50101;49.438;11.098;2022-10-31T09:05:33;19.50;75.20
38237;DHT22;50101;49.438;11.098;2022-10-31T09:08:01;19.60;75.50
38237;DHT22;50101;49.438;11.098;2022-10-31T09:10:29;19.50;76.00
38237;DHT22;50101;49.438;11.098;2022-10-31T09:13:01;19.50;75.30
38237;DHT22;50101;49.438;11.098;2022-10-31T09:15:30;19.60;75.50
38237;DHT22;50101;49.438;11.098;2022-10-31T09:17:57;19.50;75.30
38237;DHT22;50101;49.438;11.098;2022-10-31T09:20:24;19.50;75.30
38237;DHT22;50101;49.438;11.098;2022-10-31T09:22:58;19.50;75.30
38237;DHT22;50101;49.438;11.098;2022-10-31T09:25:26;19.60;75.30
38237;DHT22;50101;49.438;11.098;2022-10-31T09:28:00;19.60;75.20
38237;DHT22;50101;49.438;11.098;2022-10-31T09:30:30;19.60;75.20
38237;DHT22;50101;49.438;11.098;2022-10-31T09:33:05;19.70;74.80
38237;DHT22;50101;49.438;11.098;2022-10-31T09:35:32;18.30;74.00
38237;DHT22;50101;49.438;11.098;2022-10-31T09:38:14;19.70;75.50
38237;DHT22;50101;49.438;11.098;2022-10-31T09:40:49;19.70;74.60
38237;DHT22;50101;49.438;11.098;2022-10-31T09:46:08;19.60;75.20
38237;DHT22;50101;49.438;11.098;2022-10-31T09:53:59;19.70;75.40
38237;DHT22;50101;49.438;11.098;2022-10-31T09:56:30;19.60;75.30
38237;DHT22;50101;49.438;11.098;2022-10-31T09:58:59;19.60;75.30
38237;DHT22;50101;49.438;11.098;2022-10-31T10:01:41;19.60;75.20
38237;DHT22;50101;49.438;11.098;2022-10-31T10:04:21;19.60;75.30
38237;DHT22;50101;49.438;11.098;2022-10-31T10:06:50;19.70;75.30
38237;DHT22;50101;49.438;11.098;2022-10-31T10:09:20;19.70;75.30
38237;DHT22;50101;49.438;11.098;2022-10-31T10:11:58;19.70;75.30
38237;DHT22;50101;49.438;11.098;2022-10-31T10:25:38;19.70;75.30
38237;DHT22;50101;49.438;11.098;2022-10-31T10:36:03;19.70;75.40
38237;DHT22;50101;49.438;11.098;2022-10-31T10:38:57;19.70;75.40
38237;DHT22;50101;49.438;11.098;2022-10-31T10:41:30;19.70;75.40
38237;DHT22;50101;49.438;11.098;2022-10-31T10:44:00;19.70;75.60
38237;DHT22;50101;49.438;11.098;2022-10-31T10:49:40;20.00;75.80
38237;DHT22;50101;49.438;11.098;2022-10-31T10:58:12;19.80;75.70
38237;DHT22;50101;49.438;11.098;2022-10-31T11:00:42;19.80;75.90
38237;DHT22;50101;49.438;11.098;2022-10-31T11:03:10;19.90;75.90
38237;DHT22;50101;49.438;11.098;2022-10-31T11:05:58;19.90;75.90
38237;DHT22;50101;49.438;11.098;2022-10-31T11:08:29;19.90;76.20
38237;DHT22;50101;49.438;11.098;2022-10-31T11:11:22;19.80;75.60
38237;DHT22;50101;49.438;11.098;2022-10-31T11:14:16;19.80;75.70
38237;DHT22;50101;49.438;11.098;2022-10-31T11:16:45;19.90;76.40
38237;DHT22;50101;49.438;11.098;2022-10-31T11:19:21;19.90;75.70
38237;DHT22;50101;49.438;11.098;2022-10-31T11:21:49;19.90;75.70
38237;DHT22;50101;49.438;11.098;2022-10-31T11:24:24;19.90;75.80
38237;DHT22;50101;49.438;11.098;2022-10-31T11:27:12;19.90;75.80
38237;DHT22;50101;49.438;11.098;2022-10-31T11:29:39;19.90;75.70
38237;DHT22;50101;49.438;11.098;2022-10-31T11:32:17;19.90;75.70
38237;DHT22;50101;49.438;11.098;2022-10-31T11:34:45;19.90;75.70
38237;DHT22;50101;49.438;11.098;2022-10-31T11:37:20;19.90;75.70
38237;DHT22;50101;49.438;11.098;2022-10-31T11:39:53;19.90;75.50
38237;DHT22;50101;49.438;11.098;2022-10-31T11:42:26;19.80;75.40
38237;DHT22;50101;49.438;11.098;2022-10-31T11:44:54;19.90;75.50
38237;DHT22;50101;49.438;11.098;2022-10-31T11:47:26;19.90;75.60
38237;DHT22;50101;49.438;11.098;2022-10-31T11:49:54;19.90;75.70
38237;DHT22;50101;49.438;11.098;2022-10-31T11:52:27;19.90;75.70
38237;DHT22;50101;49.438;11.098;2022-10-31T11:54:58;19.90;75.60
38237;DHT22;50101;49.438;11.098;2022-10-31T11:57:31;19.90;75.70
38237;DHT22;50101;49.438;11.098;2022-10-31T12:00:00;19.90;75.80
38237;DHT22;50101;49.438;11.098;2022-10-31T12:02:29;19.90;75.00
38237;DHT22;50101;49.438;11.098;2022-10-31T12:05:18;19.90;75.70
38237;DHT22;50101;49.438;11.098;2022-10-31T12:07:49;19.90;75.70
38237;DHT22;50101;49.438;11.098;2022-10-31T12:10:16;19.90;75.20
38237;DHT22;50101;49.438;11.098;2022-10-31T12:15:33;19.90;75.70
38237;DHT22;50101;49.438;11.098;2022-10-31T12:21:32;19.80;75.70
38237;DHT22;50101;49.438;11.098;2022-10-31T12:24:15;19.90;75.80
38237;DHT22;50101;49.438;11.098;2022-10-31T12:27:01;19.80;75.70
38237;DHT22;50101;49.438;11.098;2022-10-31T12:38:11;19.90;75.90
38237;DHT22;50101;49.438;11.098;2022-10-31T12:44:05;19.90;76.10
38237;DHT22;50101;49.438;11.098;2022-10-31T12:49:20;20.00;76.20
38237;DHT22;50101;49.438;11.098;2022-10-31T12:52:41;20.00;76.20
38237;DHT22;50101;49.438;11.098;2022-10-31T12:55:24;20.00;76.20
38237;DHT22;50101;49.438;11.098;2022-10-31T12:58:06;20.00;76.00
38237;DHT22;50101;49.438;11.098;2022-10-31T13:00:37;20.00;75.50
38237;DHT22;50101;49.438;11.098;2022-10-31T13:05:48;20.00;76.10
38237;DHT22;50101;49.438;11.098;2022-10-31T13:08:24;19.90;76.10
38237;DHT22;50101;49.438;11.098;2022-10-31T13:11:07;20.00;76.20
38237;DHT22;50101;49.438;11.098;2022-10-31T13:14:01;19.90;76.00
38237;DHT22;50101;49.438;11.098;2022-10-31T13:16:41;19.90;76.10
38237;DHT22;50101;49.438;11.098;2022-10-31T13:19:30;19.90;76.10
38237;DHT22;50101;49.438;11.098;2022-10-31T13:22:17;19.90;76.10
38237;DHT22;50101;49.438;11.098;2022-10-31T13:27:55;19.90;75.80
38237;DHT22;50101;49.438;11.098;2022-10-31T13:30:22;20.00;75.70
38237;DHT22;50101;49.438;11.098;2022-10-31T13:33:11;20.00;75.80
38237;DHT22;50101;49.438;11.098;2022-10-31T13:39:23;19.90;75.60
38237;DHT22;50101;49.438;11.098;2022-10-31T13:41:40;19.90;75.70
38237;DHT22;50101;49.438;11.098;2022-10-31T13:44:17;20.00;75.60
38237;DHT22;50101;49.438;11.098;2022-10-31T13:46:44;20.00;75.60
38237;DHT22;50101;49.438;11.098;2022-10-31T13:51:52;20.00;75.10
38237;DHT22;50101;49.438;11.098;2022-10-31T13:54:33;20.00;74.70
38237;DHT22;50101;49.438;11.098;2022-10-31T13:57:00;20.00;72.00
38237;DHT22;50101;49.438;11.098;2022-10-31T13:59:28;20.00;72.90
38237;DHT22;50101;49.438;11.098;2022-10-31T14:01:59;20.00;73.40
38237;DHT22;50101;49.438;11.098;2022-10-31T14:04:38;20.00;73.90
38237;DHT22;50101;49.438;11.098;2022-10-31T14:07:13;20.00;70.30
38237;DHT22;50101;49.438;11.098;2022-10-31T14:12:39;20.00;73.80
38237;DHT22;50101;49.438;11.098;2022-10-31T14:15:19;20.00;70.10
38237;DHT22;50101;49.438;11.098;2022-10-31T14:17:56;20.00;72.60
38237;DHT22;50101;49.438;11.098;2022-10-31T14:20:40;20.00;71.50
38237;DHT22;50101;49.438;11.098;2022-10-31T14:28:54;19.90;72.00
38237;DHT22;50101;49.438;11.098;2022-10-31T14:31:29;19.90;69.50
38237;DHT22;50101;49.438;11.098;2022-10-31T14:42:51;20.00;73.70
38237;DHT22;50101;49.438;11.098;2022-10-31T14:51:17;20.00;72.70
38237;DHT22;50101;49.438;11.098;2022-10-31T14:53:51;20.00;73.30
38237;DHT22;50101;49.438;11.098;2022-10-31T14:56:26;20.00;73.50
38237;DHT22;50101;49.438;11.098;2022-10-31T14:58:57;20.00;72.70
38237;DHT22;50101;49.438;11.098;2022-10-31T15:01:29;19.80;71.20
38237;DHT22;50101;49.438;11.098;2022-10-31T15:04:16;19.90;73.50
38237;DHT22;50101;49.438;11.098;2022-10-31T15:06:54;19.90;73.20
38237;DHT22;50101;49.438;11.098;2022-10-31T15:09:30;20.00;73.20
38237;DHT22;50101;49.438;11.098;2022-10-31T15:12:00;20.00;73.30
38237;DHT22;50101;49.438;11.098;2022-10-31T15:14:29;20.00;73.40
38237;DHT22;50101;49.438;11.098;2022-10-31T15:16:58;20.00;73.60
38237;DHT22;50101;49.438;11.098;2022-10-31T15:19:28;20.10;73.70
38237;DHT22;50101;49.438;11.098;2022-10-31T15:21:56;20.00;73.10
38237;DHT22;50101;49.438;11.098;2022-10-31T15:24:31;20.10;73.80
38237;DHT22;50101;49.438;11.098;2022-10-31T15:26:59;20.10;73.80
38237;DHT22;50101;49.438;11.098;2022-10-31T15:29:31;20.10;73.90
38237;DHT22;50101;49.438;11.098;2022-10-31T15:32:01;20.10;74.00
38237;DHT22;50101;49.438;11.098;2022-10-31T15:34:40;20.10;73.90
38237;DHT22;50101;49.438;11.098;2022-10-31T15:37:12;20.10;74.10
38237;DHT22;50101;49.438;11.098;2022-10-31T15:39:41;20.10;74.20
38237;DHT22;50101;49.438;11.098;2022-10-31T15:44:48;20.10;74.50
38237;DHT22;50101;49.438;11.098;2022-10-31T15:47:18;20.10;74.70
38237;DHT22;50101;49.438;11.098;2022-10-31T15:49:51;20.10;73.20
38237;DHT22;50101;49.438;11.098;2022-10-31T15:52:43;20.10;73.60
38237;DHT22;50101;49.438;11.098;2022-10-31T15:55:20;20.00;74.00
38237;DHT22;50101;49.438;11.098;2022-10-31T15:57:50;19.90;74.40
38237;DHT22;50101;49.438;11.098;2022-10-31T16:00:37;19.90;74.30
38237;DHT22;50101;49.438;11.098;2022-10-31T16:05:51;19.90;74.10
38237;DHT22;50101;49.438;11.098;2022-10-31T16:13:37;19.90;74.50
38237;DHT22;50101;49.438;11.098;2022-10-31T16:16:12;19.90;74.30
38237;DHT22;50101;49.438;11.098;2022-10-31T16:19:00;19.90;74.50
38237;DHT22;50101;49.438;11.098;2022-10-31T16:21:34;19.90;74.50
38237;DHT22;50101;49.438;11.098;2022-10-31T16:24:06;19.90;74.50
38237;DHT22;50101;49.438;11.098;2022-10-31T16:26:39;19.90;74.50
38237;DHT22;50101;49.438;11.098;2022-10-31T16:29:28;19.80;74.50
38237;DHT22;50101;49.438;11.098;2022-10-31T16:31:55;19.80;74.50
38237;DHT22;50101;49.438;11.098;2022-10-31T16:34:22;19.90;74.90
38237;DHT22;50101;49.438;11.098;2022-10-31T16:36:53;19.90;74.80
38237;DHT22;50101;49.438;11.098;2022-10-31T16:39:19;19.90;75.50
38237;DHT22;50101;49.438;11.098;2022-10-31T16:41:48;19.90;74.70
38237;DHT22;50101;49.438;11.098;2022-10-31T16:44:22;19.90;74.80
38237;DHT22;50101;49.438;11.098;2022-10-31T16:47:07;19.80;74.80
38237;DHT22;50101;49.438;11.098;2022-10-31T16:49:34;19.80;74.80
38237;DHT22;50101;49.438;11.098;2022-10-31T16:52:01;19.80;74.80
38237;DHT22;50101;49.438;11.098;2022-10-31T16:54:28;19.80;74.80
38237;DHT22;50101;49.438;11.098;2022-10-31T16:56:57;19.80;74.90
38237;DHT22;50101;49.438;11.098;2022-10-31T16:59:23;19.80;74.80
38237;DHT22;50101;49.438;11.098;2022-10-31T17:01:50;19.80;74.30
38237;DHT22;50101;49.438;11.098;2022-10-31T17:04:17;19.80;75.00
38237;DHT22;50101;49.438;11.098;2022-10-31T17:06:43;19.80;75.00
38237;DHT22;50101;49.438;11.098;2022-10-31T17:09:10;19.80;75.00
38237;DHT22;50101;49.438;11.098;2022-10-31T17:11:42;19.70;74.90
38237;DHT22;50101;49.438;11.098;2022-10-31T17:14:16;19.10;74.30
38237;DHT22;50101;49.438;11.098;2022-10-31T17:16:43;19.70;74.90
38237;DHT22;50101;49.438;11.098;2022-10-31T17:19:10;19.70;75.00
38237;DHT22;50101;49.438;11.098;2022-10-31T17:21:37;19.80;75.00
38237;DHT22;50101;49.438;11.098;2022-10-31T17:24:05;19.70;74.90
38237;DHT22;50101;49.438;11.098;2022-10-31T17:26:32;19.70;74.90
38237;DHT22;50101;49.438;11.098;2022-10-31T17:28:59;19.70;75.00
38237;DHT22;50101;49.438;11.098;2022-10-31T17:31:29;19.70;75.00
38237;DHT22;50101;49.438;11.098;2022-10-31T17:33:57;19.70;75.00
38237;DHT22;50101;49.438;11.098;2022-10-31T17:36:27;19.70;75.00
38237;DHT22;50101;49.438;11.098;2022-10-31T17:38:54;19.70;75.00
38237;DHT22;50101;49.438;11.098;2022-10-31T17:41:21;19.70;74.70